Time;durP1;ratioP1;P1;durP2;ratioP2;P2;SDS_P1;SDS_P2;PMS_P1;PMS_P2;Temp;Humidity;BMP_temperature;BMP_pressure;BME280_temperature;BME280_humidity;BME280_pressure;Samples;Min_cycle;Max_cycle;Signal;HPM_P1;HPM_P2
2021/08/14 00:01:24;;;;;;;22.27;15.02;;;;;;;;;;5090766;28;20099;-68
2021/08/14 00:03:50;;;;;;;21.38;15.38;;;;;;;;;;5072507;28;20020;-68
2021/08/14 00:06:16;;;;;;;23.00;15.23;;;;;;;;;;5073775;22;20128;-66
2021/08/14 00:08:44;;;;;;;24.40;15.65;;;;;;;;;;5050499;28;20098;-66
2021/08/14 00:11:10;;;;;;;22.48;16.42;;;;;;;;;;5050156;28;20098;-67
2021/08/14 00:13:36;;;;;;;26.77;17.02;;;;;;;;;;5050243;28;20025;-67
2021/08/14 00:16:02;;;;;;;22.02;15.77;;;;;;;;;;5050925;28;20025;-65
2021/08/14 00:18:28;;;;;;;21.42;15.20;;;;;;;;;;5050316;28;20029;-65
2021/08/14 00:20:54;;;;;;;21.52;14.70;;;;;;;;;;5049373;28;20028;-67
2021/08/14 00:23:20;;;;;;;35.38;15.90;;;;;;;;;;5051998;28;20033;-66
2021/08/14 00:25:46;;;;;;;21.25;15.35;;;;;;;;;;5051983;28;20056;-65
2021/08/14 00:28:12;;;;;;;22.40;15.65;;;;;;;;;;5055138;28;20162;-66
2021/08/14 00:30:38;;;;;;;23.30;15.50;;;;;;;;;;5053832;28;20555;-67
2021/08/14 00:33:04;;;;;;;22.67;16.25;;;;;;;;;;5054101;28;20052;-66
2021/08/14 00:35:30;;;;;;;22.42;15.40;;;;;;;;;;5053280;28;20056;-66
2021/08/14 00:37:56;;;;;;;23.02;16.10;;;;;;;;;;5053844;28;20778;-67
2021/08/14 00:40:22;;;;;;;22.95;15.35;;;;;;;;;;5054073;28;20013;-66
2021/08/14 00:42:48;;;;;;;25.98;16.65;;;;;;;;;;5055569;28;20082;-70
2021/08/14 00:45:14;;;;;;;22.25;16.38;;;;;;;;;;5054908;28;20021;-65
2021/08/14 00:47:44;;;;;;;24.13;15.70;;;;;;;;;;5056192;28;20069;-66
2021/08/14 00:50:11;;;;;;;24.05;16.70;;;;;;;;;;5056056;28;20115;-66
2021/08/14 00:52:37;;;;;;;22.38;15.50;;;;;;;;;;5054735;28;20116;-66
2021/08/14 00:55:03;;;;;;;23.70;16.50;;;;;;;;;;5054615;28;20484;-66
2021/08/14 00:57:29;;;;;;;25.10;16.42;;;;;;;;;;5054084;28;20060;-67
2021/08/14 00:59:55;;;;;;;25.75;17.00;;;;;;;;;;5053266;28;20032;-65
2021/08/14 01:02:22;;;;;;;21.52;16.15;;;;;;;;;;5053386;28;20025;-68
2021/08/14 01:04:48;;;;;;;22.48;15.68;;;;;;;;;;5054260;28;20119;-65
2021/08/14 01:07:15;;;;;;;23.88;15.55;;;;;;;;;;5053887;28;20047;-67
2021/08/14 01:09:41;;;;;;;24.65;16.00;;;;;;;;;;5053219;28;20119;-66
2021/08/14 01:12:07;;;;;;;22.48;15.80;;;;;;;;;;5053303;28;20071;-65
2021/08/14 01:14:33;;;;;;;23.23;16.30;;;;;;;;;;5054386;28;20025;-66
2021/08/14 01:17:00;;;;;;;23.23;16.77;;;;;;;;;;5053516;28;20084;-67
2021/08/14 01:19:26;;;;;;;26.08;16.48;;;;;;;;;;5054349;28;20389;-67
2021/08/14 01:21:55;;;;;;;23.88;16.30;;;;;;;;;;5054344;28;20025;-65
2021/08/14 01:24:22;;;;;;;25.10;16.50;;;;;;;;;;5053117;28;20021;-67
2021/08/14 01:26:51;;;;;;;21.65;16.10;;;;;;;;;;5052400;28;20021;-68
2021/08/14 01:29:17;;;;;;;24.27;16.35;;;;;;;;;;5053103;28;20400;-66
2021/08/14 01:31:43;;;;;;;21.40;16.52;;;;;;;;;;5052897;28;20388;-67
2021/08/14 01:34:09;;;;;;;23.42;17.35;;;;;;;;;;5052603;28;20031;-67
2021/08/14 01:36:35;;;;;;;25.85;17.02;;;;;;;;;;5052413;28;20021;-67
2021/08/14 01:39:02;;;;;;;23.55;17.20;;;;;;;;;;5052517;28;20112;-67
2021/08/14 01:41:29;;;;;;;31.35;17.02;;;;;;;;;;5052965;28;20428;-66
2021/08/14 01:44:09;;;;;;;24.67;17.63;;;;;;;;;;5052486;28;20071;-67
2021/08/14 01:46:40;;;;;;;26.38;19.40;;;;;;;;;;5051602;28;20385;-66
2021/08/14 01:49:06;;;;;;;27.40;18.98;;;;;;;;;;5052584;28;20107;-67
2021/08/14 01:51:32;;;;;;;28.98;20.10;;;;;;;;;;5052314;28;20466;-71
2021/08/14 01:53:59;;;;;;;24.30;18.15;;;;;;;;;;5052415;28;20025;-67
2021/08/14 01:56:26;;;;;;;26.38;19.08;;;;;;;;;;5051904;28;20052;-66
2021/08/14 01:58:52;;;;;;;25.00;18.05;;;;;;;;;;5053413;28;20029;-66
2021/08/14 02:01:18;;;;;;;23.67;17.15;;;;;;;;;;5052142;28;20112;-66
2021/08/14 02:03:46;;;;;;;23.60;16.77;;;;;;;;;;5052108;28;20025;-65
2021/08/14 02:06:12;;;;;;;24.45;17.02;;;;;;;;;;5051439;28;20489;-67
2021/08/14 02:08:38;;;;;;;28.00;17.30;;;;;;;;;;5053151;28;20036;-68
2021/08/14 02:11:10;;;;;;;21.67;16.60;;;;;;;;;;5053177;28;20033;-66
2021/08/14 02:13:36;;;;;;;24.08;16.70;;;;;;;;;;5053208;28;20070;-66
2021/08/14 02:16:02;;;;;;;24.00;16.10;;;;;;;;;;5051937;28;20025;-68
2021/08/14 02:18:28;;;;;;;25.92;18.00;;;;;;;;;;5051306;28;20496;-67
2021/08/14 02:20:54;;;;;;;25.70;16.95;;;;;;;;;;5051021;28;20021;-67
2021/08/14 02:23:20;;;;;;;27.42;17.60;;;;;;;;;;5051432;28;20393;-67
2021/08/14 02:25:46;;;;;;;24.55;17.08;;;;;;;;;;5049971;28;20025;-67
2021/08/14 02:28:12;;;;;;;25.13;16.92;;;;;;;;;;5052501;28;20029;-67
2021/08/14 02:30:38;;;;;;;24.90;18.10;;;;;;;;;;5052164;28;20059;-67
2021/08/14 02:33:04;;;;;;;25.65;16.88;;;;;;;;;;5052187;28;20477;-68
2021/08/14 02:35:30;;;;;;;22.92;17.25;;;;;;;;;;5051321;28;20029;-67
2021/08/14 02:37:56;;;;;;;28.77;17.95;;;;;;;;;;5050795;28;20036;-68
2021/08/14 02:40:22;;;;;;;24.67;17.58;;;;;;;;;;5052522;28;20025;-66
2021/08/14 02:42:49;;;;;;;24.13;16.90;;;;;;;;;;5052774;28;20030;-66
2021/08/14 02:45:15;;;;;;;26.83;17.73;;;;;;;;;;5050663;28;20051;-68
2021/08/14 02:47:41;;;;;;;29.77;17.75;;;;;;;;;;5052563;28;20480;-67
2021/08/14 02:50:07;;;;;;;24.45;17.52;;;;;;;;;;5052195;28;20021;-67
2021/08/14 02:52:33;;;;;;;24.55;17.88;;;;;;;;;;5052395;28;20499;-68
2021/08/14 02:54:59;;;;;;;28.23;18.38;;;;;;;;;;5051073;28;20036;-67
2021/08/14 02:57:25;;;;;;;27.40;17.35;;;;;;;;;;5050598;28;20021;-68
2021/08/14 02:59:51;;;;;;;25.95;17.42;;;;;;;;;;5051259;28;20053;-67
2021/08/14 03:02:17;;;;;;;25.42;17.75;;;;;;;;;;5052116;28;20075;-66
2021/08/14 03:04:44;;;;;;;23.98;17.92;;;;;;;;;;5052069;28;20102;-66
2021/08/14 03:07:10;;;;;;;23.73;17.60;;;;;;;;;;5051462;28;20108;-67
2021/08/14 03:09:36;;;;;;;25.30;18.00;;;;;;;;;;5052272;28;20465;-67
2021/08/14 03:12:03;;;;;;;26.48;18.23;;;;;;;;;;5052280;28;20051;-68
2021/08/14 03:14:28;;;;;;;27.27;17.30;;;;;;;;;;5052217;28;20492;-67
2021/08/14 03:16:54;;;;;;;24.45;18.83;;;;;;;;;;5051369;28;20027;-67
2021/08/14 03:19:21;;;;;;;26.58;17.10;;;;;;;;;;5050833;28;20150;-66
2021/08/14 03:21:46;;;;;;;27.15;17.25;;;;;;;;;;5050979;28;20061;-67
2021/08/14 03:24:12;;;;;;;25.98;17.50;;;;;;;;;;5051083;28;20017;-67
2021/08/14 03:26:38;;;;;;;26.73;18.52;;;;;;;;;;5049024;28;20143;-66
2021/08/14 03:29:04;;;;;;;24.67;18.85;;;;;;;;;;5051872;28;20508;-68
2021/08/14 03:31:30;;;;;;;23.63;18.27;;;;;;;;;;5050714;28;20037;-66
2021/08/14 03:33:58;;;;;;;26.65;18.40;;;;;;;;;;5051979;28;20563;-67
2021/08/14 03:36:23;;;;;;;25.83;18.02;;;;;;;;;;5050067;28;20529;-67
2021/08/14 03:38:49;;;;;;;25.08;17.55;;;;;;;;;;5051857;28;20025;-65
2021/08/14 03:41:15;;;;;;;26.73;19.35;;;;;;;;;;5052122;28;20032;-66
2021/08/14 03:43:41;;;;;;;27.95;19.90;;;;;;;;;;5051794;28;20056;-66
2021/08/14 03:46:07;;;;;;;30.17;19.17;;;;;;;;;;5050834;28;20032;-67
2021/08/14 03:48:34;;;;;;;26.42;19.05;;;;;;;;;;5051774;28;20389;-65
2021/08/14 03:50:59;;;;;;;24.08;18.23;;;;;;;;;;5051888;28;20033;-67
2021/08/14 03:53:25;;;;;;;27.67;18.70;;;;;;;;;;5050798;28;20021;-67
2021/08/14 03:55:51;;;;;;;27.17;19.90;;;;;;;;;;5050984;28;20108;-69
2021/08/14 03:58:17;;;;;;;26.95;19.48;;;;;;;;;;5052013;28;20061;-67
2021/08/14 04:00:43;;;;;;;30.50;19.38;;;;;;;;;;5054254;28;20061;-67
2021/08/14 04:03:09;;;;;;;23.63;18.65;;;;;;;;;;5054634;28;20166;-65
2021/08/14 04:05:35;;;;;;;29.23;19.38;;;;;;;;;;5053543;28;20109;-66
2021/08/14 04:08:01;;;;;;;26.83;19.60;;;;;;;;;;5054508;28;20033;-67
2021/08/14 04:10:27;;;;;;;23.00;18.42;;;;;;;;;;5054277;28;20021;-67
2021/08/14 04:12:53;;;;;;;25.23;19.25;;;;;;;;;;5055361;28;20536;-66
2021/08/14 04:15:19;;;;;;;27.15;18.20;;;;;;;;;;5053280;28;20025;-66
2021/08/14 04:17:45;;;;;;;25.83;18.77;;;;;;;;;;5054071;28;20086;-66
2021/08/14 04:20:11;;;;;;;25.90;19.13;;;;;;;;;;5053943;28;20021;-67
2021/08/14 04:22:37;;;;;;;25.65;18.40;;;;;;;;;;5054270;28;20025;-66
2021/08/14 04:25:04;;;;;;;27.75;20.27;;;;;;;;;;5053749;28;20477;-66
2021/08/14 04:27:30;;;;;;;25.75;18.90;;;;;;;;;;5050658;28;21785;-67
2021/08/14 04:29:56;;;;;;;27.70;18.60;;;;;;;;;;5053924;28;20021;-67
2021/08/14 04:32:22;;;;;;;26.80;17.77;;;;;;;;;;5066366;28;20047;-68
2021/08/14 04:34:49;;;;;;;24.75;19.05;;;;;;;;;;5055376;28;20029;-66
2021/08/14 04:37:15;;;;;;;30.90;18.58;;;;;;;;;;5041653;28;20624;-67
2021/08/14 04:39:41;;;;;;;25.48;18.05;;;;;;;;;;5050564;28;20412;-67
2021/08/14 04:42:08;;;;;;;32.85;17.98;;;;;;;;;;5050679;28;20506;-68
2021/08/14 04:44:34;;;;;;;29.85;18.50;;;;;;;;;;5053349;28;20064;-67
2021/08/14 04:47:01;;;;;;;24.75;18.33;;;;;;;;;;5052874;28;20060;-66
2021/08/14 04:49:27;;;;;;;25.90;19.02;;;;;;;;;;5053784;28;20115;-67
2021/08/14 04:51:54;;;;;;;29.52;19.75;;;;;;;;;;5053791;28;20052;-67
2021/08/14 04:54:20;;;;;;;24.25;18.45;;;;;;;;;;5054936;28;20108;-68
2021/08/14 04:56:46;;;;;;;27.77;19.27;;;;;;;;;;5052885;28;20067;-67
2021/08/14 04:59:12;;;;;;;26.50;19.20;;;;;;;;;;5053472;28;20064;-67
2021/08/14 05:01:38;;;;;;;29.13;20.77;;;;;;;;;;5050869;28;20459;-67
2021/08/14 05:04:04;;;;;;;26.38;19.20;;;;;;;;;;5034944;28;20026;-66
2021/08/14 05:06:30;;;;;;;28.40;19.90;;;;;;;;;;5033848;28;20710;-67
2021/08/14 05:08:56;;;;;;;30.75;19.95;;;;;;;;;;5050773;28;20026;-66
2021/08/14 05:11:22;;;;;;;26.85;18.13;;;;;;;;;;5050436;28;20021;-66
2021/08/14 05:13:48;;;;;;;27.58;19.33;;;;;;;;;;5035697;28;20022;-67
2021/08/14 05:16:14;;;;;;;26.35;18.45;;;;;;;;;;5049272;28;20091;-67
2021/08/14 05:18:40;;;;;;;27.10;19.40;;;;;;;;;;5049597;28;20047;-67
2021/08/14 05:21:05;;;;;;;25.67;18.92;;;;;;;;;;5034214;28;20076;-65
2021/08/14 05:23:32;;;;;;;26.35;19.00;;;;;;;;;;5034161;28;20053;-66
2021/08/14 05:25:58;;;;;;;26.58;19.35;;;;;;;;;;5032225;28;20021;-65
2021/08/14 05:28:24;;;;;;;27.77;18.75;;;;;;;;;;5041716;28;20070;-66
2021/08/14 05:30:50;;;;;;;25.33;18.98;;;;;;;;;;5053905;28;20112;-66
2021/08/14 05:33:16;;;;;;;29.52;19.25;;;;;;;;;;5069361;28;20507;-66
2021/08/14 05:35:42;;;;;;;25.90;19.42;;;;;;;;;;5068533;28;20052;-67
2021/08/14 05:38:08;;;;;;;28.15;19.10;;;;;;;;;;5060855;28;20025;-66
2021/08/14 05:40:33;;;;;;;29.33;19.90;;;;;;;;;;5059838;28;20035;-67
2021/08/14 05:42:59;;;;;;;29.27;20.27;;;;;;;;;;5067285;28;20033;-67
2021/08/14 05:45:25;;;;;;;27.73;19.48;;;;;;;;;;5052970;28;20104;-65
2021/08/14 05:47:51;;;;;;;29.10;19.33;;;;;;;;;;5053632;28;20053;-66
2021/08/14 05:50:18;;;;;;;26.48;19.27;;;;;;;;;;5053387;28;20680;-66
2021/08/14 05:52:44;;;;;;;25.02;19.48;;;;;;;;;;5053646;28;20481;-66
2021/08/14 05:55:11;;;;;;;27.65;20.10;;;;;;;;;;5052715;28;20032;-66
2021/08/14 05:57:37;;;;;;;27.65;18.98;;;;;;;;;;5053460;28;20500;-66
2021/08/14 06:00:04;;;;;;;26.08;19.27;;;;;;;;;;5052277;28;20029;-67
2021/08/14 06:02:30;;;;;;;26.15;19.98;;;;;;;;;;5044406;28;20021;-66
2021/08/14 06:04:56;;;;;;;25.10;19.00;;;;;;;;;;5048593;28;20040;-67
2021/08/14 06:07:22;;;;;;;25.50;19.40;;;;;;;;;;5081418;22;20113;-69
2021/08/14 06:09:48;;;;;;;26.58;19.63;;;;;;;;;;5073848;28;20468;-67
2021/08/14 06:12:14;;;;;;;23.15;18.73;;;;;;;;;;5074075;28;20024;-66
2021/08/14 06:14:40;;;;;;;29.63;19.45;;;;;;;;;;5091908;28;20020;-67
2021/08/14 06:17:06;;;;;;;27.58;19.73;;;;;;;;;;5091101;28;20020;-67
2021/08/14 06:19:32;;;;;;;26.98;20.00;;;;;;;;;;5090274;28;20105;-67
2021/08/14 06:21:58;;;;;;;32.13;20.83;;;;;;;;;;5073379;28;20030;-67
2021/08/14 06:24:24;;;;;;;25.88;18.35;;;;;;;;;;5090315;28;20499;-67
2021/08/14 06:26:50;;;;;;;32.10;19.85;;;;;;;;;;5066618;28;20029;-67
2021/08/14 06:29:17;;;;;;;24.70;18.88;;;;;;;;;;5063934;28;20020;-68
2021/08/14 06:31:43;;;;;;;24.45;18.90;;;;;;;;;;5062749;28;20060;-68
2021/08/14 06:34:09;;;;;;;28.55;19.45;;;;;;;;;;5065127;28;20184;-66
2021/08/14 06:36:35;;;;;;;27.50;19.52;;;;;;;;;;5090966;28;20028;-68
2021/08/14 06:39:01;;;;;;;26.63;20.35;;;;;;;;;;5073412;28;20395;-67
2021/08/14 06:41:27;;;;;;;26.35;18.92;;;;;;;;;;5073272;28;20480;-67
2021/08/14 06:43:53;;;;;;;27.77;18.65;;;;;;;;;;5091457;28;20016;-67
2021/08/14 06:46:19;;;;;;;25.88;20.63;;;;;;;;;;5072345;28;20516;-66
2021/08/14 06:48:45;;;;;;;34.72;21.17;;;;;;;;;;5089769;28;20496;-67
2021/08/14 06:51:13;;;;;;;27.95;21.45;;;;;;;;;;5091317;28;20032;-68
2021/08/14 06:53:39;;;;;;;31.23;21.20;;;;;;;;;;5091384;28;20038;-68
2021/08/14 06:56:05;;;;;;;29.85;21.98;;;;;;;;;;5072271;28;20418;-67
2021/08/14 06:58:31;;;;;;;27.38;21.50;;;;;;;;;;5073058;28;20142;-67
2021/08/14 07:00:57;;;;;;;27.17;20.50;;;;;;;;;;5091087;28;20047;-66
2021/08/14 07:03:23;;;;;;;28.73;21.35;;;;;;;;;;5091120;28;20525;-68
2021/08/14 07:05:49;;;;;;;26.10;20.92;;;;;;;;;;5072114;28;20070;-68
2021/08/14 07:08:15;;;;;;;29.88;22.20;;;;;;;;;;5090978;28;20341;-68
2021/08/14 07:10:41;;;;;;;27.20;20.90;;;;;;;;;;5072756;28;20114;-68
2021/08/14 07:13:07;;;;;;;32.15;22.67;;;;;;;;;;5091206;28;20051;-68
2021/08/14 07:15:33;;;;;;;30.33;21.55;;;;;;;;;;5071758;28;20451;-68
2021/08/14 07:17:59;;;;;;;30.48;21.73;;;;;;;;;;5090849;28;20050;-70
2021/08/14 07:20:25;;;;;;;30.02;21.38;;;;;;;;;;5073105;28;20020;-69
2021/08/14 07:22:51;;;;;;;32.00;22.45;;;;;;;;;;5090803;28;20099;-67
2021/08/14 07:25:17;;;;;;;26.63;21.15;;;;;;;;;;5090212;28;20614;-68
2021/08/14 07:27:43;;;;;;;27.60;20.40;;;;;;;;;;5069969;28;20028;-67
2021/08/14 07:30:12;;;;;;;27.98;21.25;;;;;;;;;;5052541;28;20032;-68
2021/08/14 07:32:38;;;;;;;;;;;;;;;;;;5053001;28;20119;-69
2021/08/14 07:35:04;;;;;;;30.90;21.40;;;;;;;;;;5072632;28;20413;-68
2021/08/14 07:37:30;;;;;;;27.58;21.15;;;;;;;;;;5056094;28;20125;-69
2021/08/14 07:39:56;;;;;;;27.20;20.20;;;;;;;;;;5056316;28;20063;-68
2021/08/14 07:42:22;;;;;;;30.23;21.73;;;;;;;;;;5056820;28;20389;-68
2021/08/14 07:44:48;;;;;;;28.55;21.05;;;;;;;;;;5074626;28;20051;-67
2021/08/14 07:47:14;;;;;;;28.60;22.02;;;;;;;;;;5055845;28;20373;-68
2021/08/14 07:49:40;;;;;;;31.30;21.02;;;;;;;;;;5056535;28;20024;-68
2021/08/14 07:52:07;;;;;;;37.65;21.83;;;;;;;;;;5056703;28;20035;-68
2021/08/14 07:54:33;;;;;;;31.15;20.83;;;;;;;;;;5056221;28;20078;-67
2021/08/14 07:56:59;;;;;;;27.35;20.35;;;;;;;;;;5055702;28;20060;-67
2021/08/14 07:59:25;;;;;;;26.30;21.05;;;;;;;;;;5074062;28;20056;-69
2021/08/14 08:01:51;;;;;;;30.33;20.80;;;;;;;;;;5074110;28;20480;-68
2021/08/14 08:04:16;;;;;;;25.00;18.58;;;;;;;;;;5056238;28;20190;-63
2021/08/14 08:06:42;;;;;;;27.52;19.40;;;;;;;;;;5073012;28;20025;-64
2021/08/14 08:09:09;;;;;;;29.58;18.38;;;;;;;;;;5073890;28;20036;-65
2021/08/14 08:11:35;;;;;;;23.42;18.33;;;;;;;;;;5073791;28;20032;-66
2021/08/14 08:14:01;;;;;;;26.30;19.30;;;;;;;;;;5073835;28;20028;-68
2021/08/14 08:16:27;;;;;;;24.63;18.63;;;;;;;;;;5073181;28;20020;-66
2021/08/14 08:18:53;;;;;;;25.20;18.27;;;;;;;;;;5073873;28;20021;-66
2021/08/14 08:21:19;;;;;;;25.65;17.63;;;;;;;;;;5078946;28;20026;-66
2021/08/14 08:23:45;;;;;;;24.13;17.58;;;;;;;;;;5073655;28;20476;-66
2021/08/14 08:26:11;;;;;;;23.42;17.15;;;;;;;;;;5073072;28;20028;-67
2021/08/14 08:28:37;;;;;;;21.83;17.38;;;;;;;;;;5074340;28;20511;-65
2021/08/14 08:31:03;;;;;;;24.23;16.98;;;;;;;;;;5055489;28;20064;-65
2021/08/14 08:33:29;;;;;;;22.42;17.55;;;;;;;;;;5055835;28;20021;-64
2021/08/14 08:35:55;;;;;;;24.55;17.13;;;;;;;;;;5054763;28;20039;-63
2021/08/14 08:38:22;;;;;;;23.23;16.88;;;;;;;;;;5073363;28;20032;-63
2021/08/14 08:40:48;;;;;;;21.73;17.00;;;;;;;;;;5053923;28;20457;-62
2021/08/14 08:43:14;;;;;;;20.67;16.38;;;;;;;;;;5072331;28;20027;-63
2021/08/14 08:45:40;;;;;;;21.90;17.05;;;;;;;;;;5071040;28;20033;-63
2021/08/14 08:48:07;;;;;;;22.83;16.70;;;;;;;;;;5069963;28;20055;-61
2021/08/14 08:50:33;;;;;;;21.52;16.40;;;;;;;;;;5071504;28;20117;-63
2021/08/14 08:53:01;;;;;;;23.55;16.98;;;;;;;;;;5071606;28;20025;-64
2021/08/14 08:55:27;;;;;;;22.55;16.48;;;;;;;;;;5053859;28;20040;-63
2021/08/14 08:57:53;;;;;;;22.42;17.05;;;;;;;;;;5072750;28;20032;-62
2021/08/14 09:00:20;;;;;;;20.35;16.42;;;;;;;;;;5072534;28;20045;-63
2021/08/14 09:02:46;;;;;;;22.25;17.35;;;;;;;;;;5055097;28;20477;-63
2021/08/14 09:05:14;;;;;;;20.92;16.38;;;;;;;;;;5072054;28;20515;-62
2021/08/14 09:07:41;;;;;;;20.02;16.08;;;;;;;;;;5054595;28;20092;-62
2021/08/14 09:10:08;;;;;;;21.10;16.20;;;;;;;;;;5054532;28;20082;-60
2021/08/14 09:12:38;;;;;;;21.30;15.63;;;;;;;;;;5072584;28;20024;-63
2021/08/14 09:15:04;;;;;;;22.17;16.42;;;;;;;;;;5072397;28;20270;-61
2021/08/14 09:17:30;;;;;;;21.23;16.85;;;;;;;;;;5053732;28;20078;-63
2021/08/14 09:20:06;;;;;;;21.10;16.75;;;;;;;;;;5072342;28;20090;-60
2021/08/14 09:22:32;;;;;;;22.88;16.65;;;;;;;;;;5054419;28;20136;-61
2021/08/14 09:25:10;;;;;;;19.38;15.85;;;;;;;;;;5072256;28;20099;-62
2021/08/14 09:27:48;;;;;;;18.98;16.48;;;;;;;;;;5054112;28;20028;-63
2021/08/14 09:30:14;;;;;;;;;;;;;;;;;;5054496;28;20020;-64
2021/08/14 09:32:40;;;;;;;20.45;16.63;;;;;;;;;;5072022;28;19916;-63
2021/08/14 09:35:07;;;;;;;21.25;17.15;;;;;;;;;;5071628;28;20035;-62
2021/08/14 09:37:37;;;;;;;21.08;17.42;;;;;;;;;;5072161;28;20020;-63
2021/08/14 09:40:05;;;;;;;19.60;16.65;;;;;;;;;;5054299;28;20025;-63
2021/08/14 09:42:31;;;;;;;18.77;16.15;;;;;;;;;;5054185;28;20436;-61
2021/08/14 09:45:17;;;;;;;21.05;16.60;;;;;;;;;;5072287;28;20089;-62
2021/08/14 09:47:43;;;;;;;22.73;17.17;;;;;;;;;;5071975;28;20029;-62
2021/08/14 09:50:10;;;;;;;20.45;16.75;;;;;;;;;;5053099;28;20119;-61
2021/08/14 09:52:36;;;;;;;19.80;17.27;;;;;;;;;;5053946;28;20024;-63
2021/08/14 09:55:02;;;;;;;22.58;16.85;;;;;;;;;;5072204;28;20547;-64
2021/08/14 09:57:28;;;;;;;19.30;17.10;;;;;;;;;;5071135;28;20503;-63
2021/08/14 09:59:54;;;;;;;22.83;18.58;;;;;;;;;;5072042;28;20025;-63
2021/08/14 10:02:27;;;;;;;20.55;18.15;;;;;;;;;;5071906;28;20028;-63
2021/08/14 10:04:55;;;;;;;21.10;16.83;;;;;;;;;;5071275;28;20463;-62
2021/08/14 10:07:21;;;;;;;22.10;17.83;;;;;;;;;;5070275;28;20032;-58
2021/08/14 10:09:47;;;;;;;21.20;16.98;;;;;;;;;;5071724;28;20025;-62
2021/08/14 10:12:14;;;;;;;20.70;17.00;;;;;;;;;;5071783;28;20023;-63
2021/08/14 10:14:41;;;;;;;21.70;17.33;;;;;;;;;;5072187;28;20040;-64
2021/08/14 10:17:07;;;;;;;22.25;17.67;;;;;;;;;;5071188;28;20071;-64
2021/08/14 10:19:33;;;;;;;18.80;16.60;;;;;;;;;;5053199;28;20024;-61
2021/08/14 10:22:00;;;;;;;21.95;16.95;;;;;;;;;;5052678;28;20449;-64
2021/08/14 10:24:26;;;;;;;23.67;17.00;;;;;;;;;;5053106;28;20029;-63
2021/08/14 10:27:25;;;;;;;19.98;16.85;;;;;;;;;;5052586;28;20035;-62
2021/08/14 10:29:51;;;;;;;18.88;16.42;;;;;;;;;;4999015;28;20040;-62
2021/08/14 10:32:35;;;;;;;20.25;16.67;;;;;;;;;;5052959;28;20025;-63
2021/08/14 10:35:12;;;;;;;20.50;16.70;;;;;;;;;;5070567;28;20039;-64
2021/08/14 10:37:39;;;;;;;19.52;16.90;;;;;;;;;;5070592;28;20101;-66
2021/08/14 10:40:06;;;;;;;20.15;16.67;;;;;;;;;;5070722;28;20052;-61
2021/08/14 10:42:54;;;;;;;21.05;17.52;;;;;;;;;;5052590;28;20056;-62
2021/08/14 10:45:31;;;;;;;21.38;17.05;;;;;;;;;;5051775;28;20032;-64
2021/08/14 10:48:02;;;;;;;20.48;16.85;;;;;;;;;;5051260;28;20028;-62
2021/08/14 10:50:31;;;;;;;20.05;16.60;;;;;;;;;;5070484;28;20020;-60
2021/08/14 10:53:18;;;;;;;22.08;17.42;;;;;;;;;;5070275;28;20020;-62
2021/08/14 10:55:48;;;;;;;22.00;17.45;;;;;;;;;;5069631;28;20028;-61
2021/08/14 10:58:30;;;;;;;20.73;16.98;;;;;;;;;;5052179;28;20029;-64
2021/08/14 11:01:02;;;;;;;18.75;16.85;;;;;;;;;;5052247;28;20052;-63
2021/08/14 11:03:35;;;;;;;23.15;16.73;;;;;;;;;;5070311;28;20016;-64
2021/08/14 11:06:20;;;;;;;20.92;16.80;;;;;;;;;;5051415;28;20044;-62
2021/08/14 11:08:46;;;;;;;21.23;17.40;;;;;;;;;;5069512;28;20024;-63
2021/08/14 11:11:31;;;;;;;20.15;17.08;;;;;;;;;;5070314;28;20501;-67
2021/08/14 11:14:17;;;;;;;21.10;17.05;;;;;;;;;;5070147;28;20056;-64
2021/08/14 11:16:57;;;;;;;22.27;17.85;;;;;;;;;;5051852;28;20123;-64
2021/08/14 11:19:42;;;;;;;23.75;17.45;;;;;;;;;;5070423;28;20025;-64
2021/08/14 11:22:44;;;;;;;20.30;17.02;;;;;;;;;;5070186;28;20016;-63
2021/08/14 11:25:22;;;;;;;19.35;16.45;;;;;;;;;;4952368;28;20023;-63
2021/08/14 11:27:59;;;;;;;19.48;16.50;;;;;;;;;;5039817;28;20133;-63
2021/08/14 11:30:26;;;;;;;19.55;16.70;;;;;;;;;;5035566;28;20038;-63
2021/08/14 11:32:53;;;;;;;20.17;16.33;;;;;;;;;;5070155;28;20020;-63
2021/08/14 11:35:20;;;;;;;18.65;16.45;;;;;;;;;;5069615;28;20103;-62
2021/08/14 11:38:06;;;;;;;19.80;17.00;;;;;;;;;;5069871;28;20511;-63
2021/08/14 11:40:33;;;;;;;20.02;17.67;;;;;;;;;;5051836;28;20027;-60
2021/08/14 11:43:03;;;;;;;20.10;16.90;;;;;;;;;;5052006;28;20042;-63
2021/08/14 11:45:29;;;;;;;19.63;17.17;;;;;;;;;;5051483;28;20020;-63
2021/08/14 11:47:59;;;;;;;21.08;17.13;;;;;;;;;;5068390;28;20035;-65
2021/08/14 11:50:32;;;;;;;21.75;17.50;;;;;;;;;;5069861;28;20031;-62
2021/08/14 11:52:58;;;;;;;19.70;16.55;;;;;;;;;;5070075;28;20032;-63
2021/08/14 11:55:24;;;;;;;19.40;17.08;;;;;;;;;;5069383;28;20029;-64
2021/08/14 11:57:52;;;;;;;21.10;17.20;;;;;;;;;;5069881;28;20449;-62
2021/08/14 12:00:18;;;;;;;20.30;16.80;;;;;;;;;;5069754;28;20497;-62
2021/08/14 12:02:44;;;;;;;19.98;16.70;;;;;;;;;;5069816;28;20036;-62
2021/08/14 12:05:10;;;;;;;21.60;18.10;;;;;;;;;;5069318;28;20392;-64
2021/08/14 12:07:36;;;;;;;20.17;17.60;;;;;;;;;;5085015;22;20049;-62
2021/08/14 12:10:02;;;;;;;22.88;17.73;;;;;;;;;;5052583;28;20031;-62
2021/08/14 12:12:31;;;;;;;20.33;18.10;;;;;;;;;;5071125;28;20075;-63
2021/08/14 12:14:57;;;;;;;20.75;17.52;;;;;;;;;;5053325;28;20024;-60
2021/08/14 12:17:23;;;;;;;22.25;17.30;;;;;;;;;;5052203;28;20477;-63
2021/08/14 12:19:50;;;;;;;19.90;17.77;;;;;;;;;;5072260;28;20024;-60
2021/08/14 12:22:17;;;;;;;20.73;17.38;;;;;;;;;;5075098;28;20337;-61
2021/08/14 12:24:44;;;;;;;20.25;18.05;;;;;;;;;;5074807;28;20017;-60
2021/08/14 12:27:30;;;;;;;20.13;17.47;;;;;;;;;;5073479;28;20056;-61
2021/08/14 12:30:14;;;;;;;23.98;18.67;;;;;;;;;;5054753;28;20036;-61
2021/08/14 12:32:40;;;;;;;19.77;17.63;;;;;;;;;;5054570;28;20021;-62
2021/08/14 12:35:14;;;;;;;21.08;17.98;;;;;;;;;;5036183;28;20021;-60
2021/08/14 12:37:40;;;;;;;20.58;18.38;;;;;;;;;;5054135;28;20505;-63
2021/08/14 12:40:06;;;;;;;19.92;17.88;;;;;;;;;;5054376;28;20025;-63
2021/08/14 12:42:36;;;;;;;21.50;18.75;;;;;;;;;;5054364;28;20028;-60
2021/08/14 12:45:13;;;;;;;21.30;17.52;;;;;;;;;;5053898;28;20017;-60
2021/08/14 12:47:39;;;;;;;21.55;18.20;;;;;;;;;;5035803;28;20116;-62
2021/08/14 12:50:12;;;;;;;19.63;17.48;;;;;;;;;;5034766;28;20147;-63
2021/08/14 12:52:52;;;;;;;19.92;17.70;;;;;;;;;;5036697;28;20436;-61
2021/08/14 12:55:25;;;;;;;21.75;17.70;;;;;;;;;;5035832;28;20044;-61
2021/08/14 12:57:51;;;;;;;21.10;18.50;;;;;;;;;;5036225;28;20017;-59
2021/08/14 13:00:17;;;;;;;20.85;18.10;;;;;;;;;;5053573;28;20025;-63
2021/08/14 13:02:43;;;;;;;21.48;17.45;;;;;;;;;;5035979;28;20025;-64
2021/08/14 13:05:09;;;;;;;20.10;17.02;;;;;;;;;;5053340;28;20028;-59
2021/08/14 13:07:35;;;;;;;21.58;17.52;;;;;;;;;;5035854;28;20029;-61
2021/08/14 13:10:01;;;;;;;21.02;17.85;;;;;;;;;;5035723;28;20393;-62
2021/08/14 13:12:27;;;;;;;19.63;17.42;;;;;;;;;;5035815;28;20127;-61
2021/08/14 13:14:53;;;;;;;21.05;18.10;;;;;;;;;;5036137;28;20022;-65
2021/08/14 13:17:19;;;;;;;21.50;18.13;;;;;;;;;;5035033;28;20040;-64
2021/08/14 13:19:45;;;;;;;21.85;17.48;;;;;;;;;;5035543;28;20504;-64
2021/08/14 13:22:11;;;;;;;19.90;17.80;;;;;;;;;;5053573;28;20029;-63
2021/08/14 13:24:37;;;;;;;20.90;18.58;;;;;;;;;;5053898;28;20029;-61
2021/08/14 13:27:03;;;;;;;20.52;17.98;;;;;;;;;;5035214;28;20021;-61
2021/08/14 13:29:29;;;;;;;23.45;18.35;;;;;;;;;;5069717;28;20108;-63
2021/08/14 13:31:55;;;;;;;20.30;18.02;;;;;;;;;;5072296;28;20456;-62
2021/08/14 13:34:21;;;;;;;20.25;17.77;;;;;;;;;;5055016;28;20031;-60
2021/08/14 13:36:47;;;;;;;21.65;17.98;;;;;;;;;;5054690;28;20656;-61
2021/08/14 13:39:13;;;;;;;20.30;17.63;;;;;;;;;;5055276;28;20031;-62
2021/08/14 13:41:40;;;;;;;19.65;17.50;;;;;;;;;;5055302;28;20020;-60
2021/08/14 13:44:06;;;;;;;19.63;17.48;;;;;;;;;;5073149;28;20099;-63
2021/08/14 13:46:33;;;;;;;21.73;16.80;;;;;;;;;;5072721;28;20472;-63
2021/08/14 13:48:59;;;;;;;19.20;17.10;;;;;;;;;;5071604;28;20476;-53
2021/08/14 13:51:25;;;;;;;19.45;16.77;;;;;;;;;;5054966;28;20029;-62
2021/08/14 13:53:51;;;;;;;20.05;17.15;;;;;;;;;;5055171;28;20070;-61
2021/08/14 13:56:17;;;;;;;22.75;17.70;;;;;;;;;;5054090;28;20044;-56
2021/08/14 13:58:43;;;;;;;19.67;17.48;;;;;;;;;;5072599;28;20032;-62
2021/08/14 14:01:09;;;;;;;20.63;17.50;;;;;;;;;;5072728;28;20455;-63
2021/08/14 14:03:35;;;;;;;21.40;18.42;;;;;;;;;;5072713;28;20029;-65
2021/08/14 14:06:01;;;;;;;20.25;18.15;;;;;;;;;;5054275;28;20111;-65
2021/08/14 14:08:26;;;;;;;19.80;17.70;;;;;;;;;;5054673;28;20098;-57
2021/08/14 14:10:53;;;;;;;22.30;18.13;;;;;;;;;;5072738;28;20024;-62
2021/08/14 14:13:19;;;;;;;22.75;18.00;;;;;;;;;;5072880;28;20024;-61
2021/08/14 14:15:45;;;;;;;26.67;18.35;;;;;;;;;;5054182;28;20089;-62
2021/08/14 14:18:11;;;;;;;23.73;19.02;;;;;;;;;;5054554;28;20035;-61
2021/08/14 14:20:38;;;;;;;20.08;17.90;;;;;;;;;;5072601;28;20400;-61